Tiempo atmosférico en la estación meteorológica de Don Benito, Badajoz (273 m.)



Fecha
DESCASC
Temp. máxima en grados centígrados (hora)
DESCASC
Temp. mínima en grados centígrados (hora)
DESCASC
Temp. media en grados centígrados
DESCASC
Racha de viento máxima en m/sg (hora)
DESCASC
Velocidad máxima media en intervalos de 10 minutos(hora)
DESCASC
Precipitaciones diarias en mm
DESCASC
Precipitaciones de 00:00 a 06:00 en mm
DESCASC
Precipitaciones de 06:00 a 12:00 en mm
DESCASC
Precipitaciones de 12:00 a 18:00 en mm
DESCASC
Precipitaciones de 18:00 a 24:00 en mm
DESCASC
18-01-2018 16.7 (17:00) 2 (06:50) 9.4 4.44 (13:10) 2.22 (11:50) 0 0 0 0 0
17-01-2018 13.1 (16:40) 6.8 (23:00) 10 6.67 (06:20) 3.89 (06:10) 0 0 0 0 0
16-01-2018 14.5 (15:10) 3 (08:40) 8.8 7.22 (16:30) 4.17 (16:30) 0 0 0 0 0
15-01-2018 12.8 (16:30) 0 (08:10) 6.4 3.33 (21:20) 2.5 (21:20) 0 0 0 0 0
14-01-2018 9.5 (16:20) 2.4 (00:00) 6 4.72 (13:30) 2.5 (02:50) 0 0 0 0 0
13-01-2018 9.5 (17:20) 3.5 (00:00) 6.5 10.28 (11:50) 5.83 (11:50) 8.2 0 4.4 3.8 0
12-01-2018 9.8 (16:50) 0.8 (00:00) 5.3 4.17 (22:40) 2.22 (01:20) 0 0 0 0 0
11-01-2018 13.5 (15:10) 4.4 (00:00) 9 9.44 (11:00) 4.17 (11:00) 0 0 0 0 0
10-01-2018 13.9 (16:10) 6.5 (00:00) 10.2 14.72 (15:30) 6.67 (15:30) 1.4 0.4 0 1 0
09-01-2018 9.7 (16:30) 1.6 (00:00) 5.6 6.39 (17:00) 3.33 (16:30) 4.8 0 0 2 2.8
08-01-2018 11 (16:50) 3.4 (00:00) 7.2 6.11 (02:30) 3.33 (02:30) 2.8 2.8 0 0 0
07-01-2018 9 (14:30) 4.2 (00:00) 6.6 6.94 (00:30) 3.61 (01:00) 1.6 0 0 0 1.6
06-01-2018 10.8 (16:10) 4.2 (00:00) 7.5 11.11 (16:40) 6.11 (16:30) 0.4 0.4 0 0 0
05-01-2018 14.9 (13:00) 8 (00:00) 11.4 10.56 (14:00) 5.83 (14:00) 13.6 0 0 3.4 10.2
04-01-2018 16.2 (13:50) 11.8 (00:00) 14 6.94 (12:40) 3.33 (11:30) 0 0 0 0 0
03-01-2018 15.5 (15:30) 10.2 (00:00) 12.8 7.22 (16:50) 3.61 (15:40) 0 0 0 0 0
02-01-2018 15.4 (15:40) 5.6 (00:00) 10.5 6.67 (08:30) 3.61 (09:50) 0 0 0 0 0
01-01-2018 13.4 (15:40) 2 (00:00) 7.7 8.06 (15:40) 3.89 (14:40) 0 0 0 0 0
31-12-2017 15.7 (15:00) 6.8 (00:00) 11.3 13.33 (16:50) 6.94 (16:50) 0 0 0 0 0
30-12-2017 17.3 (16:40) 8.8 (00:00) 13 5 (15:10) 2.22 (02:10) 0 0 0 0 0
29-12-2017 16.9 (13:30) 12.7 (00:00) 14.8 8.89 (15:20) 5 (12:50) 0 0 0 0 0
28-12-2017 17.4 (15:20) 9.8 (00:00) 13.6 13.89 (12:40) 6.11 (12:50) 0.6 0.6 0 0 0
27-12-2017 14.4 (15:40) 9.8 (00:00) 12.1 18.61 (01:30) 8.61 (01:30) 11.8 11.8 0 0 0
26-12-2017 11.8 (15:20) 7.7 (00:00) 9.8 16.11 (23:40) 7.78 (23:50) 1.4 1.4 0 0 0
25-12-2017 15.3 (14:10) 3.8 (00:00) 9.6 7.78 (23:59) 3.33 (22:50) 0.4 0 0 0.4 0
24-12-2017 16.5 (16:00) 4.3 (00:00) 10.4 5 (13:40) 2.5 (15:00) 0 0 0 0 0

Gráficas

Temp. máximas Temp. mínimas Temp. medias Precipitaciones Rachas de viento máximas Velocidades máximas media en intervalos de 10 minutos

Datos horarios

Fecha y hora oficial Temperatura (ºC) Velocidad del viento (km/h) Dirección del viento Racha (km/h) Dirección de racha Precipitación (mm) Presión (hPa) Tendencia (hPa) Humedad (%)
2018-01-22 23:00:00 7.4 2 Sur 6 Sur 0 997 0.1 97
2018-01-22 22:00:00 7.5 0 Calma 6 Sur 0 996.9 0.4 97
2018-01-22 21:00:00 7.6 2 Sur 8 Noroeste 0 997 0.6 97
2018-01-22 20:00:00 7.7 4 Sudoeste 9 Noroeste 0 996.9 0.5 97
2018-01-22 19:00:00 7.9 4 Sudoeste 10 Oeste 0 996.5 0.2 97
2018-01-22 18:00:00 8 3 Oeste 8 Sudoeste 0 996.4 0 97
2018-01-22 17:00:00 8.1 0 Calma 7 Oeste 0 996.4 -0.5 97
2018-01-22 16:00:00 7.9 4 Oeste 10 Oeste 0 996.3 -1.3 97
2018-01-22 15:00:00 8 6 Oeste 14 Sudoeste 0 996.4 -1.6 97
2018-01-22 14:00:00 7.8 6 Oeste 14 Oeste 0 996.9 -1.1 97
2018-01-22 13:00:00 7.8 5 Oeste 15 Oeste 0 997.6 -0.2 97
2018-01-22 12:00:00 7.8 4 Sudoeste 9 Oeste 0 998 0.4 96
2018-01-22 11:00:00 7.6 4 Oeste 13 Sudoeste 0 998 0.6 96
2018-01-22 10:00:00 7.5 3 Oeste 9 Sudoeste 0 997.8 0.6 96
2018-01-22 09:00:00 7.5 0 Calma 8 Oeste 0.2 997.6 0.5 96
2018-01-22 08:00:00 7.2 0 Calma 4 Oeste 0 997.4 0.2 96
2018-01-22 07:00:00 6.8 0 Calma 5 Sudoeste 0 997.2 -0.3 96
2018-01-22 06:00:00 6.5 0 Calma 4 Noroeste 0 997.1 -0.5 96
2018-01-22 05:00:00 6 0 Calma 4 Sur 0 997.2 -0.5 96
2018-01-22 04:00:00 5.7 2 Sur 5 Sur 0 997.5 -0.5 96
2018-01-22 03:00:00 5.1 0 Calma 8 Noroeste 0 997.6 -0.5 96
2018-01-22 02:00:00 4.5 3 Norte 6 Norte 0 997.7 -0.3 95
2018-01-22 01:00:00 6.1 4 Noroeste 5 Noroeste 0 998 -0.1 95
2018-01-22 00:00:00 7.3 0 Calma 4 Este 0 998.1 0.2 95
2018-01-21 23:00:00 7 2 Este 5 Sudeste 0 998 0.1 94
2018-01-21 22:00:00 7.5 4 Sudeste 8 Sudeste 0 998.1 0.4 94
2018-01-21 21:00:00 8 4 Sur 6 Sudeste 0 997.9 0.5 92
2018-01-21 20:00:00 8.8 2 Sur 7 Sudoeste 0 997.9 0.5 88
2018-01-21 19:00:00 10 3 Oeste 14 Oeste 0 997.7 0.2 86
2018-01-21 18:00:00 12 7 Sudoeste 16 Sudoeste 0 997.4 -0.6 79
2018-01-21 17:00:00 13.1 6 Oeste 15 Oeste 0 997.4 -1.3 74
2018-01-21 16:00:00 13 5 Oeste 12 Noroeste 0 997.5 -1.9 75
2018-01-21 15:00:00 11.3 3 Oeste 9 Oeste 0 998 -1.8 79
2018-01-21 14:00:00 8.9 3 Norte 11 Oeste 0 998.7 -0.8 89
2018-01-21 13:00:00 8 5 Oeste 18 Oeste 0 999.4 0.6 93
2018-01-21 12:00:00 7.4 8 Oeste 15 Sudoeste 0 999.8 1.8 96
2018-01-21 11:00:00 6.9 9 Sudoeste 24 Sudoeste 0 999.5 1.8 96
2018-01-21 10:00:00 6.7 11 Oeste 19 Oeste 0 998.8 1.3 96
2018-01-21 09:00:00 5.2 8 Sudoeste 18 Sudoeste 0 998 0.8 96
2018-01-21 08:00:00 5.4 8 Sudoeste 18 Sudoeste 0 997.7 0.4 96
2018-01-21 07:00:00 5.6 9 Sudoeste 19 Sudoeste 0 997.5 -0.2 95
2018-01-21 06:00:00 5.7 10 Sudoeste 18 Oeste 0 997.2 -0.5 94
2018-01-21 05:00:00 6.2 8 Sudoeste 21 Sudoeste 0 997.3 -0.2 93
2018-01-21 04:00:00 6.5 9 Sudoeste 23 Sudoeste 0 997.7 0 92
2018-01-21 03:00:00 7.1 9 Sudoeste 20 Sudoeste 0 997.7 0.6 91
2018-01-21 02:00:00 7.4 10 Sudoeste 21 Sudoeste 0 997.5 0.4 90
2018-01-21 01:00:00 7.7 7 Sudoeste 31 Sudoeste 0 997.7 0.7 87
2018-01-21 00:00:00 8.5 15 Sudoeste 27 Sudoeste 0 997.1 0.3 86
2018-01-20 23:00:00 8.5 8 Sudoeste 17 Oeste 0 997.1 0.8 87
2018-01-20 22:00:00 8.6 9 Sudoeste 18 Sudoeste 0 997 1 84
2018-01-20 21:00:00 9.2 10 Sudoeste 16 Sudoeste 0 996.8 1.4 76
2018-01-20 20:00:00 10.4 6 Sudoeste 16 Oeste 0 996.3 1 69
2018-01-20 19:00:00 12.2 8 Oeste 17 Oeste 0 996 1 60
2018-01-20 18:00:00 14.5 8 Oeste 18 Sudoeste 0 995.4 -0.2 52
2018-01-20 17:00:00 16.1 9 Sudoeste 21 Sudoeste 0 995.3 -0.7 47
2018-01-20 16:00:00 16.7 9 Sudoeste 17 Sudoeste 0 995 -2.2 45
2018-01-20 15:00:00 14.3 6 Oeste 14 Oeste 0 995.6 -1.8 57
2018-01-20 14:00:00 13.4 7 Sudoeste 13 Sudoeste 0 996 -1.3 60
2018-01-20 13:00:00 11.4 5 Oeste 15 Sudoeste 0 997.2 0.3 67
2018-01-20 12:00:00 11.3 7 Sudoeste 15 Oeste 0 997.4 1.2 68
2018-01-20 11:00:00 8.3 5 Oeste 11 Sudoeste 0 997.3 1.7 79
2018-01-20 10:00:00 5 0 Calma 9 Este 0 996.9 2 88
2018-01-20 09:00:00 3 2 Sudoeste 10 Sudoeste 0 996.2 1.7 91
2018-01-20 08:00:00 3.3 0 Calma 9 Sur 0 995.6 1.2 89
2018-01-20 07:00:00 3.9 7 Sur 9 Sudeste 0 994.9 0.8 89
2018-01-20 06:00:00 4.1 0 Calma 6 Sur 0 994.5 0.6 89
2018-01-20 05:00:00 4.8 2 Sudeste 12 Oeste 0 994.4 0.4 87
2018-01-20 04:00:00 5.1 6 Sudoeste 14 Sur 0 994.1 0.6 83
2018-01-20 03:00:00 6.3 8 Sur 15 Sudoeste 0 993.9 0.7 83
2018-01-20 02:00:00 6.2 5 Sudoeste 12 Sudoeste 0 994 1 82
2018-01-20 01:00:00 7.4 8 Sudoeste 13 Sudoeste 0 993.5 1 78
2018-01-20 00:00:00 8 6 Sudoeste 14 Sur 0 993.2 1.2 77
2018-01-19 23:00:00 8.3 8 Sudoeste 15 Sudoeste 0 993 1.5 78
2018-01-19 22:00:00 9 9 Sudoeste 16 Sudoeste 0 992.5 2 77
2018-01-19 21:00:00 9.9 8 Sudoeste 14 Sudoeste 0 992 1.8 75
2018-01-19 20:00:00 10.7 7 Sudoeste 17 Sudoeste 0 991.5 1.9 73
2018-01-19 19:00:00 12.6 8 Sudoeste 12 Sudoeste 0 990.5 1.4 67
2018-01-19 18:00:00 15.4 5 Sudoeste 17 Sudoeste 0 990.2 0.9 58
2018-01-19 17:00:00 17.2 8 Sudoeste 17 Sudoeste 0 989.6 0.2 50
2018-01-19 16:00:00 16.7 4 Oeste 13 Oeste 0 989.1 -1.4 49
2018-01-19 15:00:00 14.9 6 Noroeste 13 Noroeste 0 989.3 -1.7 54
2018-01-19 14:00:00 13.9 5 Sudoeste 13 Sudoeste 0 989.4 -0.2 58
2018-01-19 13:00:00 11.9 4 Sur 15 Noroeste 0 990.5 1.4 67
2018-01-19 12:00:00 8.2 5 Noroeste 13 Noroeste 0 991 2.3 80
2018-01-19 11:00:00 7.1 3 Norte 8 Nordeste 0 989.6 1.3 83
2018-01-19 10:00:00 4.5 0 Calma 6 Noroeste 0 989.1 1.5 96
2018-01-19 09:00:00 2.4 4 Noroeste 10 Norte 0 988.7 1.3 94
2018-01-19 08:00:00 2.6 3 Norte 6 Noroeste 0 988.3 1 93
2018-01-19 07:00:00 2.9 0 Calma 7 Sudeste 0 987.6 0.2 92
2018-01-19 06:00:00 3.3 3 Sudeste 5 Sudeste 0 987.4 0 92
2018-01-19 05:00:00 3.7 2 Norte 7 Sudoeste 0 987.3 -0.3 90
2018-01-19 04:00:00 4.1 4 Sur 8 Sur 0 987.4 -0.3 89
2018-01-19 03:00:00 4.2 4 Sur 8 Sur 0 987.4 -0.5 86
2018-01-19 02:00:00 5.2 3 Norte 8 Sudeste 0 987.6 -0.4 85
2018-01-19 01:00:00 6.2 5 Sudeste 12 Sudeste 0 987.7 -0.3 81
2018-01-19 00:00:00 6.5 4 Sur 8 Noroeste 0 987.9 -0.4 82
2018-01-18 23:00:00 6.9 2 Nordeste 6 Norte 0 988 -0.1 81
2018-01-18 22:00:00 8.3 2 Noroeste 8 Noroeste 0 988 0.2 74
2018-01-18 21:00:00 9.1 2 Sur 8 Sur 0 988.3 0.2 72
2018-01-18 20:00:00 10.6 6 Sur 10 Sur 0 988.1 0.1 67
2018-01-18 19:00:00 12.7 3 Nordeste 10 Norte 0 987.8 -0.4 57
2018-01-18 18:00:00 15.4 3 Norte 12 Norte 0 988.1 -0.8 49
2018-01-18 17:00:00 16.6 3 Norte 12 Norte 0 988 -2.1 43
2018-01-18 16:00:00 16.4 6 Nordeste 16 Norte 0 988.2 -3 40
2018-01-18 15:00:00 15.5 6 Nordeste 14 Nordeste 0 988.9 -2.9 46
2018-01-18 14:00:00 13.7 6 Nordeste 16 Nordeste 0 990.1 -1.8 52
2018-01-18 13:00:00 12.1 6 Nordeste 16 Nordeste 0 991.2 -0.4 60
2018-01-18 12:00:00 9.7 7 Nordeste 15 Nordeste 0 991.8 0.6 67
2018-01-18 11:00:00 7.3 3 Nordeste 13 Nordeste 0 991.9 0.9 84
2018-01-18 10:00:00 5.6 4 Este 10 Este 0 991.6 0.9 98
2018-01-18 09:00:00 2.8 2 Este 9 Este 0 991.2 0.4 97
2018-01-18 08:00:00 2.2 2 Nordeste 5 Sudeste 0 991 0 97
2018-01-18 07:00:00 2.2 5 Sudeste 13 Sur 0 990.7 -0.7 97
2018-01-18 06:00:00 2.4 0 Calma 8 Sur 0 990.8 -0.9 97
2018-01-18 05:00:00 3 2 Sur 7 Sudoeste 0 991 -0.7 97
2018-01-18 04:00:00 4.9 0 Calma 6 Nordeste 0 991.4 -0.8 97
2018-01-18 03:00:00 4.2 3 Nordeste 5 Nordeste 0 991.7 -0.7 96
2018-01-18 02:00:00 4.8 2 Sudeste 7 Sur 0 991.7 -0.7 95
2018-01-18 01:00:00 6.3 4 Norte 9 Sudeste 0 992.2 -0.2 95
2018-01-18 00:00:00 7 4 Nordeste 8 Nordeste 0 992.4 -0.1 94
2018-01-17 23:00:00 6.8 3 Este 12 Nordeste 0 992.4 -0.1 93
2018-01-17 22:00:00 7.3 5 Nordeste 8 Nordeste 0 992.4 -0.1 94
2018-01-17 21:00:00 7.7 2 Este 9 Sudeste 0 992.5 0.3 90
2018-01-17 20:00:00 8.7 2 Este 5 Nordeste 0 992.5 0.1 87
2018-01-17 19:00:00 10.2 2 Nordeste 7 Nordeste 0 992.5 -0.2 82
2018-01-17 18:00:00 11.9 5 Este 11 Nordeste 0 992.2 -0.9 76
2018-01-17 17:00:00 12.7 5 Nordeste 14 Sudeste 0 992.4 -1.4 72
2018-01-17 16:00:00 12.6 8 Este 14 Este 0 992.7 -1.5 73
2018-01-17 15:00:00 11.2 7 Este 15 Este 0 993.1 -1.7 79
2018-01-17 14:00:00 10 5 Norte 16 Norte 0 993.8 -1 89
2018-01-17 13:00:00 9.9 5 Este 12 Este 0 994.2 0 98
2018-01-17 12:00:00 9.1 6 Sudeste 11 Este 0 994.8 1.3 98
2018-01-17 11:00:00 7.7 3 Este 8 Este 0 994.8 1.6 98
2018-01-17 10:00:00 7 3 Norte 16 Sudoeste 0 994.2 1 98
2018-01-17 09:00:00 7.5 7 Sudoeste 16 Sudoeste 0 993.5 0.3 98
2018-01-17 08:00:00 7.8 9 Sudoeste 23 Sudoeste 0 993.2 -0.1 98
2018-01-17 07:00:00 8.1 12 Sudoeste 24 Sudoeste 0 993.2 -0.6 98
2018-01-17 06:00:00 8.2 10 Sudoeste 19 Sudoeste 0 993.2 -1.2 98
2018-01-17 05:00:00 8.7 9 Sudoeste 16 Oeste 0 993.3 -2.1 98
2018-01-17 04:00:00 8.9 8 Sudoeste 15 Sudoeste 0 993.8 -2 98
2018-01-17 03:00:00 9.6 6 Sudoeste 9 Sudoeste 0 994.4 -1.4 98
2018-01-17 02:00:00 9.6 5 Sudoeste 13 Noroeste 0 995.4 -0.5 97
2018-01-17 01:00:00 9.8 4 Noroeste 12 Noroeste 0 995.8 -0.6 97
2018-01-17 00:00:00 9.9 4 Oeste 14 Noroeste 0 995.8 -0.4 97
2018-01-16 23:00:00 9.9 7 Sudoeste 17 Oeste 0 995.9 0 96
2018-01-16 22:00:00 9.9 4 Oeste 11 Oeste 0 996.4 0.5 95
2018-01-16 21:00:00 9 5 Sudoeste 9 Sudoeste 0 996.2 0.2 92
2018-01-16 20:00:00 9.8 4 Sudoeste 14 Sudoeste 0 995.9 -0.1 88
2018-01-16 19:00:00 10.9 7 Sudoeste 17 Sudoeste 0 995.9 0 86
2018-01-16 18:00:00 11.6 7 Sudoeste 24 Oeste 0 996 -0.4 82
2018-01-16 17:00:00 12.7 14 Oeste 26 Sudoeste 0 996 -1.1 75
2018-01-16 16:00:00 14.4 12 Sudoeste 25 Sudoeste 0 995.9 -2.1 65
2018-01-16 15:00:00 14.2 9 Sudoeste 22 Oeste 0 996.4 -2.4 62
2018-01-16 14:00:00 13.1 10 Oeste 21 Sudoeste 0 997.1 -1.6 61
2018-01-16 13:00:00 12.1 10 Sudoeste 22 Sudoeste 0 998 -0.3 59
2018-01-16 12:00:00 10.7 10 Sudoeste 24 Sudoeste 0 998.8 0.7 63
2018-01-16 11:00:00 8.8 12 Sudoeste 22 Sudoeste 0 998.7 1.3 70
2018-01-16 10:00:00 5.6 4 Sur 11 Sudoeste 0 998.3 1.2 82
2018-01-16 09:00:00 3.1 5 Oeste 10 Oeste 0 998.1 1.1 89
2018-01-16 08:00:00 3.2 6 Sudoeste 10 Sudoeste 0 997.4 0.2 89
2018-01-16 07:00:00 3.3 5 Sudoeste 10 Sudoeste 0 997.1 -0.7 88
2018-01-16 06:00:00 4.2 2 Noroeste 9 Sudoeste 0 997 -0.6 86
2018-01-16 05:00:00 4.4 4 Sudoeste 7 Sudoeste 0 997.2 -0.8 85
2018-01-16 04:00:00 3.8 0 Calma 10 Sur 0 997.8 -0.2 86
2018-01-16 03:00:00 4.1 2 Oeste 4 Sudoeste 0 997.6 -0.5 89
2018-01-16 02:00:00 3.2 0 Calma 6 Sudeste 0 998 0 88
2018-01-16 01:00:00 3.3 2 Sudeste 4 Sudeste 0 998 0.4 86
2018-01-16 00:00:00 4.4 3 Sur 8 Sur 0 998.1 0.7 81
2018-01-15 23:00:00 4.8 2 Sudoeste 10 Sur 0 998 1.2 80
2018-01-15 22:00:00 5.3 6 Sudeste 12 Sudeste 0 997.6 1.6 81
2018-01-15 21:00:00 6.1 5 Sur 9 Sudeste 0 997.4 1.9 81
2018-01-15 20:00:00 7.1 4 Sudoeste 7 Sur 0 996.8 1.6 77
2018-01-15 19:00:00 8.8 5 Sudoeste 7 Sudoeste 0 996 1.1 70
2018-01-15 18:00:00 11.1 3 Sudoeste 9 Sudoeste 0 995.5 0.4 55
2018-01-15 17:00:00 12.3 4 Sur 8 Sudeste 0 995.2 0 48
2018-01-15 16:00:00 11.4 3 Norte 8 Noroeste 0 994.9 -1 54
2018-01-15 15:00:00 11.2 3 Nordeste 8 Nordeste 0 995.1 -1 50
2018-01-15 14:00:00 10.2 3 Norte 9 Nordeste 0 995.2 -0.7 61
2018-01-15 13:00:00 9.2 3 Sudeste 8 Sudeste 0 995.9 0.6 71
2018-01-15 12:00:00 5.9 3 Nordeste 6 Nordeste 0 996.1 2.4 81
2018-01-15 11:00:00 3.7 3 Norte 9 Norte 0 995.9 2.8 90
2018-01-15 10:00:00 1.5 4 Norte 9 Norte 0 995.3 2.9 97
2018-01-15 09:00:00 0.1 0 Calma 6 Sur 0 993.7 1.4 97
2018-01-15 08:00:00 0.2 3 Nordeste 9 Sudeste 0 993.1 1.1 97
2018-01-15 07:00:00 0.5 4 Sudeste 10 Sudeste 0 992.4 0.9 97
2018-01-15 06:00:00 0.2 4 Sudeste 7 Sudeste 0 992.3 1.4 96
2018-01-15 05:00:00 0.3 0 Calma 12 Noroeste 0 992 1.2 96
2018-01-15 04:00:00 1.2 2 Sudeste 5 Noroeste 0 991.5 0.9 96
2018-01-15 03:00:00 1.2 0 Calma 5 Noroeste 0 990.9 0.1 94
2018-01-15 02:00:00 1.9 3 Norte 5 Sudeste 0 990.8 0.6 93
2018-01-15 01:00:00 2.4 4 Sudeste 9 Sur 0 990.6 1.2 92
2018-01-15 00:00:00 2.5 2 Sur 5 Sudoeste 0 990.8 1.9 91
2018-01-14 23:00:00 3 3 Sur 7 Sudeste 0 990.2 2.1 89
2018-01-14 22:00:00 3.5 0 Calma 4 Nordeste 0 989.4 1.8 89
2018-01-14 21:00:00 4.1 2 Oeste 4 Oeste 0 988.9 1.9 86
2018-01-14 20:00:00 4.9 0 Calma 8 Norte 0 988.1 1.6 82
2018-01-14 19:00:00 6.1 3 Noroeste 12 Noroeste 0 987.6 1.4 79
2018-01-14 18:00:00 7.8 8 Noroeste 14 Noroeste 0 987 0.7 70
2018-01-14 17:00:00 8.8 6 Norte 14 Norte 0 986.5 -0.2 69
2018-01-14 16:00:00 9.4 4 Oeste 11 Oeste 0 986.2 -1.3 70
2018-01-14 15:00:00 8.3 4 Noroeste 10 Nordeste 0 986.3 -1.8 75
2018-01-14 14:00:00 8.8 5 Oeste 17 Noroeste 0 986.7 -1.1 79
2018-01-14 13:00:00 8.4 6 Oeste 14 Norte 0 987.5 -0.3 75
2018-01-14 12:00:00 7.1 3 Norte 14 Oeste 0 988.1 0.5 95
2018-01-14 11:00:00 6.6 4 Oeste 12 Oeste 0 987.8 0.8 98
2018-01-14 10:00:00 4.9 2 Oeste 4 Sudoeste 0 987.8 1 98
2018-01-14 09:00:00 4.5 0 Calma 8 Sudoeste 0 987.6 0.5 98
2018-01-14 08:00:00 4 3 Sudoeste 8 Sudoeste 0 987 -0.4 97
2018-01-14 07:00:00 4.7 3 Oeste 7 Sudoeste 0 986.8 -0.9 97
2018-01-14 06:00:00 5 3 Oeste 9 Sudoeste 0 987.1 -0.6 97
2018-01-14 05:00:00 5 5 Sudoeste 10 Oeste 0 987.4 -1 97
2018-01-14 04:00:00 4.9 3 Oeste 14 Sudoeste 0 987.7 -1 97
2018-01-14 03:00:00 4.3 6 Sur 14 Sudoeste 0 987.7 -1.2 96
2018-01-14 02:00:00 4.3 3 Noroeste 9 Norte 0 988.4 -0.4 96
2018-01-14 01:00:00 4.5 3 Oeste 10 Sudoeste 0 988.7 0.1 95
2018-01-14 00:00:00 4.5 6 Sudoeste 14 Sudoeste 0 988.9 0.8 95
2018-01-13 23:00:00 4.6 6 Sudoeste 14 Sudoeste 0 988.8 1.4 94
2018-01-13 22:00:00 5.3 8 Sudoeste 14 Sudoeste 0 988.6 1.4 93
2018-01-13 21:00:00 5.8 8 Sudoeste 18 Sudoeste 0 988.1 1.3 91
2018-01-13 20:00:00 6.9 8 Sudoeste 16 Sudoeste 0 987.4 1.1 91
2018-01-13 19:00:00 7.8 6 Sudoeste 13 Sudoeste 0 987.2 1.4 90
2018-01-13 18:00:00 8.6 8 Noroeste 23 Noroeste 0 986.8 1.8 84
2018-01-13 17:00:00 9 8 Oeste 19 Oeste 0 986.3 0.9 90
2018-01-13 16:00:00 8.7 7 Oeste 21 Oeste 0.2 985.8 -0.2 97
2018-01-13 15:00:00 7.8 3 Oeste 12 Sudoeste 0 985 -1.1 97
2018-01-13 14:00:00 7.7 7 Sudoeste 19 Sudoeste 0.6 985.4 -1.8 96
2018-01-13 13:00:00 7.2 3 Sudoeste 15 Sudeste 3 986 -1.3 95
2018-01-13 12:00:00 6.5 13 Este 37 Sudeste 2.2 986.1 -0.7 94
2018-01-13 11:00:00 5.2 6 Este 12 Este 1 987.2 0.7 96
2018-01-13 10:00:00 4.3 3 Norte 9 Noroeste 1.2 987.3 0.2 95
2018-01-13 09:00:00 4.4 2 Norte 12 Este 0 986.8 -0.5 91
2018-01-13 08:00:00 4.3 7 Este 14 Este 0 986.5 -1.4 94
2018-01-13 07:00:00 3.6 0 Calma 4 Nordeste 0 987.1 -1.4 95
2018-01-13 06:00:00 3.6 2 Nordeste 10 Noroeste 0 987.3 -1.4 95
2018-01-13 05:00:00 4.1 2 Este 8 Este 0 987.9 -1.5 93
2018-01-13 04:00:00 4.2 0 Calma 5 Norte 0 988.5 -1.7 92
2018-01-13 03:00:00 4.7 3 Sudeste 6 Sudeste 0 988.7 -1.8 92
2018-01-13 02:00:00 4.5 0 Calma 6 Este 0 989.4 -1.3 90
2018-01-13 01:00:00 5 0 Calma 6 Norte 0 990.2 -1.4 88
2018-01-13 00:00:00 5.3 3 Nordeste 8 Sudeste 0 990.5 -0.9 87
2018-01-12 23:00:00 6 7 Sudeste 15 Sudeste 0 990.7 -1 84
2018-01-12 22:00:00 5.6 5 Sudeste 9 Sudeste 0 991.6 -0.1 86
2018-01-12 21:00:00 5.6 6 Sur 9 Sur 0 991.4 -0.6 84
2018-01-12 20:00:00 6.2 0 Calma 4 Nordeste 0 991.7 -0.5 79
2018-01-12 19:00:00 7.3 2 Nordeste 4 Nordeste 0 991.7 -0.8 75
2018-01-12 18:00:00 8.9 2 Nordeste 10 Este 0 992 -0.9 67
2018-01-12 17:00:00 9.7 3 Este 8 Nordeste 0 992.2 -1.3 63
2018-01-12 16:00:00 9.5 4 Norte 8 Norte 0 992.5 -1.5 65
2018-01-12 15:00:00 9.1 3 Norte 10 Norte 0 992.9 -2 66
2018-01-12 14:00:00 8.4 4 Norte 12 Nordeste 0 993.5 -1.9 67
2018-01-12 13:00:00 7.8 5 Nordeste 12 Nordeste 0 994 -0.7 74
2018-01-12 12:00:00 5.6 3 Nordeste 8 Nordeste 0 994.9 0.8 82
2018-01-12 11:00:00 3.7 3 Norte 6 Noroeste 0 995.4 1.5 87
2018-01-12 10:00:00 2.1 0 Calma 9 Sudeste 0 994.7 0.8 93
2018-01-12 09:00:00 0.8 2 Sudeste 6 Oeste 0 994.1 0.1 94
2018-01-12 08:00:00 1.5 3 Este 6 Este 0 993.9 -0.1 94
2018-01-12 07:00:00 1.5 3 Nordeste 4 Nordeste 0 993.9 -0.4 93
2018-01-12 06:00:00 1.7 3 Sudoeste 9 Sudoeste 0 994 -0.5 91
2018-01-12 05:00:00 2.3 5 Sudoeste 11 Sudoeste 0 994 -1 90
2018-01-12 04:00:00 2.6 6 Sudoeste 11 Sudoeste 0 994.3 -0.9 89
2018-01-12 03:00:00 2.9 5 Sudoeste 12 Sudoeste 0 994.5 -0.6 87
2018-01-12 02:00:00 3.7 7 Sudoeste 13 Sudoeste 0 995 0.2 84
2018-01-12 01:00:00 3.9 6 Sudoeste 9 Sudoeste 0 995.2 0.6 84
2018-01-12 00:00:00 4.4 7 Sudoeste 14 Sur 0 995.1 0.9 82
2018-01-11 23:00:00 5.9 4 Sudoeste 13 Sur 0 994.8 0.8 77
2018-01-11 22:00:00 7.4 10 Noroeste 22 Sudoeste 0 994.6 1 71
2018-01-11 21:00:00 7 3 Noroeste 17 Noroeste 0 994.2 0.9 76
2018-01-11 20:00:00 7.5 5 Sudoeste 11 Sudoeste 0 994 0.9 75
2018-01-11 19:00:00 9.2 5 Noroeste 12 Noroeste 0 993.6 0.5 65
2018-01-11 18:00:00 10.9 7 Noroeste 20 Noroeste 0 993.3 0.4 57
2018-01-11 17:00:00 11.8 12 Noroeste 27 Noroeste 0 993.1 -0.3 53
2018-01-11 16:00:00 12 12 Noroeste 31 Noroeste 0 993.1 -0.9 56
2018-01-11 15:00:00 13.3 10 Oeste 30 Noroeste 0 992.9 -1.8 57
2018-01-11 14:00:00 12.4 11 Oeste 24 Oeste 0 993.4 -0.6 72
2018-01-11 13:00:00 11.2 8 Oeste 28 Oeste 0 994 0.6 74
2018-01-11 12:00:00 9.8 13 Oeste 32 Oeste 0 994.7 2 81
2018-01-11 11:00:00 8.2 15 Oeste 34 Oeste 0 994 1.6 90
2018-01-11 10:00:00 6.7 12 Oeste 25 Oeste 0 993.4 0.9 92
2018-01-11 09:00:00 5.3 8 Sudoeste 19 Sudoeste 0 992.7 0 94
2018-01-11 08:00:00 5.2 8 Sudoeste 22 Sudoeste 0 992.4 -0.8 94
2018-01-11 07:00:00 5.4 9 Sudoeste 23 Sudoeste 0 992.5 -1.1 94
2018-01-11 06:00:00 5.2 10 Sudoeste 21 Sudoeste 0 992.7 -0.3 95
2018-01-11 05:00:00 4.5 5 Sur 12 Sudoeste 0 993.2 0 94
2018-01-11 04:00:00 5.2 6 Sudoeste 18 Oeste 0 993.6 0.4 94
2018-01-11 03:00:00 5.1 5 Sudoeste 19 Sudoeste 0 993 -0.3 93
2018-01-11 02:00:00 5.6 4 Sur 14 Sudoeste 0 993.2 0.7 91
2018-01-11 01:00:00 6.2 8 Oeste 22 Oeste 0 993.2 1.2 89
2018-01-11 00:00:00 6.5 7 Oeste 15 Oeste 0 993.3 2 86
2018-01-10 23:00:00 7.5 5 Oeste 20 Oeste 0 992.5 1.9 80
2018-01-10 22:00:00 8.3 8 Oeste 27 Oeste 0 992 2.4 80
2018-01-10 21:00:00 9.5 9 Oeste 27 Oeste 0 991.3 2.7 82
2018-01-10 20:00:00 10.2 12 Oeste 27 Oeste 0 990.6 2.6 85
2018-01-10 19:00:00 11 9 Oeste 28 Oeste 0 989.6 2.3 83
2018-01-10 18:00:00 11.7 16 Oeste 53 Oeste 0.4 988.6 0.6 86
2018-01-10 17:00:00 12.9 18 Sudoeste 41 Sudoeste 0.4 988 -0.9 82
2018-01-10 16:00:00 13.8 22 Sudoeste 53 Sudoeste 0.2 987.3 -2.2 74
2018-01-10 15:00:00 12.9 16 Sudoeste 36 Sudoeste 0 988 -2.8 77
2018-01-10 14:00:00 13.1 13 Sudoeste 33 Sudoeste 0 988.9 -1.6 78
2018-01-10 13:00:00 11.9 10 Sudoeste 21 Sudoeste 0 989.5 -0.2 83
2018-01-10 12:00:00 10.8 9 Oeste 23 Sudoeste 0 990.8 1.6 93
2018-01-10 11:00:00 9.4 6 Oeste 15 Oeste 0 990.5 2 97
2018-01-10 10:00:00 8.4 4 Oeste 12 Oeste 0 989.7 2.1 97
2018-01-10 09:00:00 7.8 5 Oeste 17 Oeste 0 989.2 2 97
2018-01-10 08:00:00 7.8 8 Oeste 17 Oeste 0 988.5 2.3 97
2018-01-10 07:00:00 8.1 6 Sudoeste 15 Oeste 0 987.6 2.1 97
2018-01-10 06:00:00 8.2 6 Oeste 22 Noroeste 0 987.2 1.8 97
2018-01-10 05:00:00 8.4 4 Oeste 14 Sudoeste 0 986.2 1.1 97
2018-01-10 04:00:00 8.2 3 Sudoeste 8 Oeste 0 985.5 0.9 97
2018-01-10 03:00:00 8.2 2 Sudoeste 9 Noroeste 0.2 985.4 0.6 97
2018-01-10 02:00:00 8.2 3 Norte 11 Norte 0.2 985.1 0.2 97
2018-01-10 01:00:00 8.7 3 Nordeste 8 Nordeste 0 984.6 0 97
2018-01-10 00:00:00 9 3 Nordeste 7 Nordeste 0.2 984.8 0.1 97
2018-01-09 23:00:00 8.8 3 Nordeste 12 Este 0.2 984.9 0.4 97
2018-01-09 22:00:00 8.7 5 Este 13 Sudeste 0.2 984.6 0.3 96
2018-01-09 21:00:00 8.5 4 Nordeste 15 Este 1 984.7 0.2 96
2018-01-09 20:00:00 8.4 7 Este 17 Este 0.6 984.5 0 96
2018-01-09 19:00:00 8.4 7 Este 19 Este 0.6 984.3 -0.2 95
2018-01-09 18:00:00 8.7 5 Este 15 Sudeste 1.6 984.5 -0.8 92
2018-01-09 17:00:00 9.5 9 Sur 23 Sur 0.2 984.5 -1.6 82
2018-01-09 16:00:00 9.5 9 Sudeste 19 Sudeste 0.2 984.5 -2.5 80
2018-01-09 15:00:00 8.8 6 Sur 12 Sur 0 985.3 -2 80
2018-01-09 14:00:00 8.2 4 Este 19 Sudoeste 0 986.1 -1.2 72
2018-01-09 13:00:00 7.8 10 Sur 21 Sur 0 987 0.2 72
2018-01-09 12:00:00 6.2 7 Sudeste 12 Sudeste 0 987.3 1.4 80
2018-01-09 11:00:00 4.2 3 Este 6 Este 0 987.3 1.1 88
2018-01-09 10:00:00 3.1 2 Nordeste 9 Este 0 986.8 1.2 89
2018-01-09 09:00:00 3 3 Nordeste 9 Sudeste 0 985.9 0 88
2018-01-09 08:00:00 2.4 2 Este 10 Este 0 986.2 1.3 92
2018-01-09 07:00:00 1.9 3 Nordeste 6 Norte 0 985.6 0.9 94
2018-01-09 06:00:00 1.6 3 Noroeste 9 Noroeste 0 985.9 1.2 91
2018-01-09 05:00:00 2.2 2 Sudoeste 11 Sudeste 0 984.9 0.5 88
2018-01-09 04:00:00 2.9 5 Sudeste 10 Sudeste 0 984.7 0.1 87
2018-01-09 03:00:00 2.5 3 Sur 7 Sudeste 0 984.7 0.2 89
2018-01-09 02:00:00 2.7 5 Sudoeste 9 Sudoeste 0 984.4 0.2 88
2018-01-09 01:00:00 3 6 Sudoeste 10 Sudoeste 0 984.6 1 87
2018-01-09 00:00:00 3.4 7 Sudoeste 10 Sudoeste 0 984.5 1.3 87
2018-01-08 23:00:00 4.2 5 Oeste 12 Oeste 0 984.2 1.4 85
2018-01-08 22:00:00 4.6 3 Oeste 6 Sudoeste 0 983.6 1.5 84
2018-01-08 21:00:00 5.9 3 Sur 8 Sur 0 983.2 2.2 81
2018-01-08 20:00:00 6.6 5 Sudoeste 9 Sur 0 982.8 2.4 77
2018-01-08 19:00:00 7.5 6 Sudoeste 9 Oeste 0 982.1 2.3 70
2018-01-08 18:00:00 9.2 2 Norte 10 Nordeste 0 981 1.7 55
2018-01-08 17:00:00 10.3 4 Norte 11 Este 0 980.4 0.7 49
2018-01-08 16:00:00 10.1 5 Nordeste 14 Nordeste 0 979.8 -0.3 51
2018-01-08 15:00:00 9.9 5 Nordeste 13 Nordeste 0 979.3 -1 54
2018-01-08 14:00:00 9.5 4 Este 17 Este 0 979.7 0 56
2018-01-08 13:00:00 9.4 5 Este 16 Nordeste 0 980.1 1.6 61
2018-01-08 12:00:00 7.3 8 Nordeste 16 Nordeste 0 980.3 2.8 70
2018-01-08 11:00:00 6.8 8 Este 18 Este 0 979.7 2.4 72
2018-01-08 10:00:00 5.8 6 Nordeste 17 Nordeste 0 978.5 1.9 78
2018-01-08 09:00:00 5.3 6 Este 16 Este 0 977.5 1.5 87
2018-01-08 08:00:00 5.1 7 Este 19 Este 0 977.3 2 87
2018-01-08 07:00:00 4.8 7 Este 21 Este 0 976.6 2 88
2018-01-08 06:00:00 4.9 8 Este 18 Este 0 976 2.3 89
2018-01-08 05:00:00 4.6 7 Este 18 Este 0.4 975.3 1.9 90
2018-01-08 04:00:00 4.5 6 Este 22 Sudeste 0.4 974.6 1.2 90
2018-01-08 03:00:00 5 10 Sudeste 22 Sudeste 0.2 973.7 0.5 89
2018-01-08 02:00:00 5.3 9 Sudeste 17 Este 0.8 973.4 0.6 92
2018-01-08 01:00:00 5.5 7 Sudeste 13 Sur 1 973.4 0.8 92
2018-01-08 00:00:00 5.7 8 Sur 15 Sudoeste 0.6 973.2 0.8 92
2018-01-07 23:00:00 5.7 6 Sur 13 Sur 0.4 972.8 0.9 92
2018-01-07 22:00:00 5.8 6 Sudoeste 14 Sudoeste 0.2 972.6 1.3 91
2018-01-07 21:00:00 6 5 Oeste 15 Oeste 0.4 972.4 1.8 89
2018-01-07 20:00:00 6.5 8 Oeste 18 Sudoeste 0 971.9 2 82
2018-01-07 19:00:00 7 8 Sudoeste 15 Sudoeste 0 971.3 2 77
2018-01-07 18:00:00 7.6 2 Oeste 8 Nordeste 0 970.6 1.8 66
2018-01-07 17:00:00 7.8 4 Norte 17 Noroeste 0 969.9 0.9 68
2018-01-07 16:00:00 8.2 10 Noroeste 19 Noroeste 0 969.3 0 59
2018-01-07 15:00:00 8.8 6 Noroeste 18 Noroeste 0 968.8 -0.8 56
2018-01-07 14:00:00 8.7 8 Noroeste 23 Noroeste 0 969 -0.5 57
2018-01-07 13:00:00 8.5 9 Noroeste 19 Noroeste 0 969.3 0.4 58
2018-01-07 12:00:00 7.4 5 Oeste 15 Sudoeste 0 969.6 1.1 66
2018-01-07 11:00:00 5.7 6 Oeste 14 Oeste 0 969.5 1.2 75
2018-01-07 10:00:00 4.8 7 Oeste 15 Oeste 0 968.9 0.8 75
2018-01-07 09:00:00 4.4 6 Oeste 15 Oeste 0 968.5 0.4 75
2018-01-07 08:00:00 4.6 8 Oeste 22 Oeste 0 968.3 0 72
2018-01-07 07:00:00 4.3 9 Oeste 21 Sudoeste 0 968.1 -0.4 76
2018-01-07 06:00:00 4.3 11 Oeste 24 Oeste 0 968.1 -0.4 76
2018-01-07 05:00:00 4.2 11 Oeste 23 Oeste 0 968.3 -0.5 78
2018-01-07 04:00:00 4.7 11 Sudoeste 23 Oeste 0 968.5 -0.9 74
2018-01-07 03:00:00 4.7 8 Oeste 23 Oeste 0 968.5 -1.3 75
2018-01-07 02:00:00 4.6 10 Oeste 25 Oeste 0 968.8 -0.9 74
2018-01-07 01:00:00 4.8 13 Oeste 25 Oeste 0 969.4 -0.4 73
2018-01-07 00:00:00 4.8 11 Oeste 26 Oeste 0 969.8 -0.2 71
2018-01-06 23:00:00 4.2 12 Sudoeste 23 Oeste 0 969.7 -0.1 71
2018-01-06 22:00:00 5.4 9 Oeste 20 Oeste 0 969.8 0.3 62
2018-01-06 21:00:00 5.8 7 Oeste 20 Noroeste 0 970 0.8 65
2018-01-06 20:00:00 7 11 Noroeste 28 Noroeste 0 969.8 1 56
2018-01-06 19:00:00 7.6 12 Noroeste 38 Oeste 0 969.5 1 57
2018-01-06 18:00:00 8.8 17 Noroeste 38 Noroeste 0 969.2 1.1 52
2018-01-06 17:00:00 10 19 Noroeste 40 Noroeste 0 968.8 0.3 49
2018-01-06 16:00:00 10.5 17 Noroeste 39 Noroeste 0 968.5 -0.2 50
2018-01-06 15:00:00 9.7 17 Noroeste 36 Noroeste 0 968.1 -1.5 54
2018-01-06 14:00:00 9.3 17 Noroeste 30 Noroeste 0 968.5 -0.8 62
2018-01-06 13:00:00 8.8 14 Noroeste 27 Noroeste 0 968.7 -0.4 64
2018-01-06 12:00:00 7.2 9 Oeste 22 Oeste 0 969.6 0.5 75
2018-01-06 11:00:00 6.9 6 Oeste 17 Oeste 0 969.3 0.9 78
2018-01-06 10:00:00 6.5 4 Oeste 12 Sudoeste 0 969.1 0.5 85
2018-01-06 09:00:00 6.4 5 Oeste 12 Oeste 0 969.1 -0.1 84
2018-01-06 08:00:00 6.8 5 Norte 13 Norte 0 968.4 -1.1 78
2018-01-06 07:00:00 7 3 Oeste 8 Oeste 0 968.6 -1.3 93
2018-01-06 06:00:00 7.3 4 Oeste 14 Noroeste 0 969.2 -1.2 95
2018-01-06 05:00:00 7.5 5 Oeste 11 Oeste 0 969.5 -1.9 97
2018-01-06 04:00:00 7.6 6 Sudoeste 12 Oeste 0 969.9 -2.5 97
2018-01-06 03:00:00 7.6 5 Sudoeste 11 Sudoeste 0 970.4 -3.2 96
2018-01-06 02:00:00 7.6 4 Oeste 18 Noroeste 0 971.4 -2.2 95
2018-01-06 01:00:00 8 3 Sur 9 Sudeste 0.4 972.4 -1.2 93
2018-01-06 00:00:00 8 3 Norte 16 Noroeste 3.4 973.6 -0.9 95
2018-01-05 23:00:00 8.4 7 Noroeste 18 Noroeste 3.2 973.6 -1.3 95
2018-01-05 22:00:00 9.9 3 Sudoeste 15 Sur 0.8 973.6 -2.2 94
2018-01-05 21:00:00 10.2 9 Sur 17 Sudoeste 1.6 974.5 -2.1 93
2018-01-05 20:00:00 10.5 6 Sur 16 Sudeste 0.4 974.9 -2.3 94
2018-01-05 19:00:00 10.6 9 Sudoeste 19 Sudoeste 0.8 975.8 -1.9 93
2018-01-05 18:00:00 11.1 12 Sudoeste 24 Sudoeste 0.2 976.6 -1.9 91
2018-01-05 17:00:00 11.6 11 Sudoeste 26 Oeste 2.2 977.2 -2.7 92
2018-01-05 16:00:00 12.3 6 Oeste 24 Sudoeste 0.8 977.7 -3.5 90
2018-01-05 15:00:00 12.9 6 Sudoeste 35 Sudoeste 0.2 978.5 -4.5 86
2018-01-05 14:00:00 13.5 21 Sudoeste 38 Sudoeste 0 979.9 -3.9 73
2018-01-05 13:00:00 14.6 19 Sudoeste 36 Sur 0 981.2 -3.2 63
2018-01-05 12:00:00 13.3 15 Sudoeste 33 Oeste 0 983 -2.4 71
2018-01-05 11:00:00 12.7 17 Sur 32 Sudoeste 0 983.8 -2.3 72
2018-01-05 10:00:00 11.2 11 Sur 33 Sur 0 984.4 -2.1 85
2018-01-05 09:00:00 10.8 19 Sur 35 Sudoeste 0 985.4 -2.1 86
2018-01-05 08:00:00 11.1 13 Sudoeste 23 Sudoeste 0 986.1 -1.9 83
2018-01-05 07:00:00 10.8 5 Sudoeste 20 Sudoeste 0 986.5 -2.2 90
2018-01-05 06:00:00 10.8 11 Sudoeste 27 Sudoeste 0 987.5 -2 90
2018-01-05 05:00:00 11.3 9 Sudoeste 23 Oeste 0 988 -2.6 87
2018-01-05 04:00:00 12.1 6 Oeste 24 Sudoeste 0 988.7 -3 81
2018-01-05 03:00:00 12.1 7 Sudoeste 15 Sudoeste 0 989.5 -2.9 88
2018-01-05 02:00:00 12.3 5 Sudoeste 12 Sudoeste 0 990.6 -2.2 90
2018-01-05 01:00:00 12.6 5 Sudoeste 13 Sudoeste 0 991.7 -1.3 88
2018-01-05 00:00:00 12.9 8 Sudoeste 15 Sudoeste 0 992.4 -1.1 85
2018-01-04 23:00:00 12.7 4 Oeste 14 Sudoeste 0 992.8 -0.9 82
2018-01-04 22:00:00 12.6 6 Sudoeste 12 Sudoeste 0 993 -1 87
2018-01-04 21:00:00 12.8 7 Sudoeste 13 Sudoeste 0 993.5 -0.8 86
2018-01-04 20:00:00 13.4 6 Sudoeste 14 Sudoeste 0 993.7 -0.6 84
2018-01-04 19:00:00 14.1 7 Sudoeste 17 Oeste 0 994 -0.4 83
2018-01-04 18:00:00 14.8 8 Oeste 22 Oeste 0 994.3 -0.9 80
2018-01-04 17:00:00 15.4 8 Oeste 21 Oeste 0 994.3 -2.1 76
2018-01-04 16:00:00 15.6 10 Oeste 18 Sudoeste 0 994.4 -3.2 74
2018-01-04 15:00:00 15.8 10 Sudoeste 24 Sudoeste 0 995.2 -3.1 74
2018-01-04 14:00:00 15.9 9 Oeste 24 Oeste 0 996.4 -1.8 74
2018-01-04 13:00:00 14.3 12 Oeste 25 Oeste 0 997.6 -0.3 83
2018-01-04 12:00:00 13.7 9 Oeste 24 Oeste 0 998.3 0.4 88
2018-01-04 11:00:00 13.3 10 Sudoeste 19 Oeste 0 998.2 0.4 96
2018-01-04 10:00:00 12.3 6 Oeste 13 Oeste 0 997.9 0.2 98
2018-01-04 09:00:00 12.3 7 Oeste 15 Sudoeste 0 997.9 0.1 98
2018-01-04 08:00:00 12.4 5 Oeste 14 Sudoeste 0 997.8 -0.2 98
2018-01-04 07:00:00 12.4 8 Oeste 17 Oeste 0 997.7 -1 98
2018-01-04 06:00:00 12.5 6 Sudoeste 13 Sudoeste 0 997.8 -1 98
2018-01-04 05:00:00 12.6 6 Sudoeste 11 Sudoeste 0 998 -1.2 98
2018-01-04 04:00:00 12.6 5 Sudoeste 10 Oeste 0 998.7 -1 98
2018-01-04 03:00:00 12.5 3 Oeste 17 Oeste 0 998.8 -1.1 97
2018-01-04 02:00:00 12.4 7 Sudoeste 14 Sudoeste 0 999.2 -1 97
2018-01-04 01:00:00 12.4 6 Sudoeste 11 Oeste 0 999.7 -0.6 97
2018-01-04 00:00:00 11.8 5 Sudoeste 12 Sur 0 999.9 -0.1 97
2018-01-03 23:00:00 10.6 4 Sudoeste 7 Sudoeste 0 1000.2 0.2 96
2018-01-03 22:00:00 10.4 2 Sur 9 Sudoeste 0 1000.3 0.3 93
2018-01-03 21:00:00 11.2 6 Sudoeste 11 Sudoeste 0 1000 -0.2 92
2018-01-03 20:00:00 12 6 Sudoeste 10 Sudoeste 0 1000 -0.1 89
2018-01-03 19:00:00 13.1 4 Sur 14 Sudoeste 0 1000 -0.5 85
2018-01-03 18:00:00 14.2 7 Oeste 23 Sudoeste 0 1000.2 -0.8 82
2018-01-03 17:00:00 14.8 12 Sudoeste 26 Sudoeste 0 1000.1 -1.5 80
2018-01-03 16:00:00 15.2 10 Sudoeste 23 Sudoeste 0 1000.5 -1.9 79
2018-01-03 15:00:00 15 6 Sudoeste 15 Sudoeste 0 1001 -1.7 80
2018-01-03 14:00:00 14.1 7 Sudoeste 15 Sudoeste 0 1001.6 -1 85
2018-01-03 13:00:00 13.3 5 Oeste 14 Oeste 0 1002.4 0 89
2018-01-03 12:00:00 12.7 8 Oeste 17 Sudoeste 0 1002.7 0.7 97
2018-01-03 11:00:00 12.1 7 Sudoeste 15 Sudoeste 0 1002.6 1.2 98
2018-01-03 10:00:00 11.6 5 Oeste 18 Oeste 0 1002.4 1.1 98
2018-01-03 09:00:00 11.5 6 Oeste 22 Oeste 0 1002 0.5 98
2018-01-03 08:00:00 11.4 8 Sudoeste 18 Oeste 0 1001.4 -0.1 97
2018-01-03 07:00:00 11.3 6 Sudoeste 17 Oeste 0 1001.3 -0.4 95
2018-01-03 06:00:00 11.6 7 Sudoeste 16 Oeste 0 1001.5 0 94
2018-01-03 05:00:00 11.4 8 Oeste 16 Sudoeste 0 1001.5 0.1 93
2018-01-03 04:00:00 11.4 4 Oeste 14 Oeste 0 1001.7 -0.2 92
2018-01-03 03:00:00 11 8 Oeste 17 Oeste 0 1001.5 -0.6 92
2018-01-03 02:00:00 10.8 7 Sudoeste 21 Oeste 0 1001.4 -0.9 88
2018-01-03 01:00:00 11.9 11 Oeste 23 Oeste 0 1001.9 -0.3 86
2018-01-03 00:00:00 11.7 8 Sudoeste 14 Sudoeste 0 1002.1 -0.3 87
2018-01-02 23:00:00 11.3 5 Oeste 14 Oeste 0 1002.3 0.3 87
2018-01-02 22:00:00 11.3 9 Sudoeste 15 Sudoeste 0 1002.2 0.3 85
2018-01-02 21:00:00 12.4 7 Oeste 15 Oeste 0 1002.4 0.6 83
2018-01-02 20:00:00 12.7 7 Oeste 15 Oeste 0 1002 0.2 82
2018-01-02 19:00:00 13.1 6 Oeste 15 Oeste 0 1001.9 0.2 81
2018-01-02 18:00:00 13.6 6 Oeste 18 Oeste 0 1001.8 0.2 77
2018-01-02 17:00:00 14 6 Oeste 19 Oeste 0 1001.8 -0.5 75
2018-01-02 16:00:00 14.9 11 Sudoeste 23 Sudoeste 0 1001.7 -1.3 69
2018-01-02 15:00:00 14.9 9 Oeste 19 Sudoeste 0 1001.6 -1.9 71
2018-01-02 14:00:00 13.8 7 Sudoeste 16 Sudoeste 0 1002.3 -0.8 73
2018-01-02 13:00:00 11.3 9 Oeste 19 Oeste 0 1003 0.5 89
2018-01-02 12:00:00 8.7 11 Oeste 21 Oeste 0 1003.5 1.4 98
2018-01-02 11:00:00 7.7 11 Sudoeste 21 Sudoeste 0 1003.1 1.6 98
2018-01-02 10:00:00 6.7 11 Sudoeste 21 Oeste 0 1002.5 0.9 98
2018-01-02 09:00:00 6.8 8 Sudoeste 24 Oeste 0 1002.1 0.7 98
2018-01-02 08:00:00 7 9 Oeste 20 Oeste 0 1001.5 0.2 98
2018-01-02 07:00:00 6.9 8 Oeste 21 Oeste 0 1001.6 0 98
2018-01-02 06:00:00 6.9 10 Oeste 22 Sudoeste 0 1001.4 -0.4 98
2018-01-02 05:00:00 6.3 10 Oeste 19 Sudoeste 0 1001.3 -1 97
2018-01-02 04:00:00 5.7 6 Sudoeste 13 Sur 0 1001.6 -1.1 95
2018-01-02 03:00:00 6.1 5 Sur 12 Sudoeste 0 1001.8 -0.9 94
2018-01-02 02:00:00 6.5 6 Oeste 13 Oeste 0 1002.3 -0.5 93
2018-01-02 01:00:00 6.8 7 Sudoeste 14 Oeste 0 1002.7 0.2 90
2018-01-02 00:00:00 7.1 8 Oeste 15 Oeste 0 1002.7 0.4 89
2018-01-01 23:00:00 7.6 6 Oeste 14 Oeste 0 1002.8 0.6 87
2018-01-01 22:00:00 7.6 6 Oeste 12 Oeste 0 1002.5 0.3 87
2018-01-01 21:00:00 8.2 3 Sudoeste 12 Sudoeste 0 1002.3 0.5 84
2018-01-01 20:00:00 9.2 5 Sudoeste 12 Sudoeste 0 1002.2 0.3 81
2018-01-01 19:00:00 10.4 5 Oeste 13 Sudoeste 0 1002.2 0.2 78
2018-01-01 18:00:00 11.8 6 Sudoeste 18 Oeste 0 1001.8 0 72
2018-01-01 17:00:00 12.2 10 Sudoeste 24 Sudoeste 0 1001.9 -0.4 69
2018-01-01 16:00:00 13.3 11 Oeste 29 Oeste 0 1002 -1.2 65
2018-01-01 15:00:00 12.9 13 Oeste 27 Oeste 0 1001.8 -1.8 65
2018-01-01 14:00:00 11.3 9 Sudoeste 21 Oeste 0 1002.3 -2.2 77
2018-01-01 13:00:00 8.3 10 Sudoeste 22 Sudoeste 0 1003.2 0.2 95
2018-01-01 12:00:00 5.7 12 Sudoeste 20 Sudoeste 0 1003.6 1.7 98
2018-01-01 11:00:00 4.1 2 Oeste 10 Sudoeste 0 1004.5 3.5 97
2018-01-01 10:00:00 3.3 0 Calma 10 Norte 0 1003 1.6 97
2018-01-01 09:00:00 2.5 4 Noroeste 9 Noroeste 0 1001.9 0.5 96
2018-01-01 08:00:00 3.9 4 Sudeste 10 Sudeste 0 1001 0 96
2018-01-01 07:00:00 3.9 3 Sudeste 6 Noroeste 0 1001.4 0.1 96
2018-01-01 06:00:00 4.5 4 Noroeste 8 Oeste 0 1001.4 0.5 96
2018-01-01 05:00:00 4.4 5 Sudoeste 9 Oeste 0 1001 -0.3 95
2018-01-01 04:00:00 5.1 5 Sudoeste 14 Sudoeste 0 1001.3 -0.1 95
2018-01-01 03:00:00 5.5 6 Sur 11 Sur 0 1000.9 -0.5 95
2018-01-01 02:00:00 6 9 Sudoeste 11 Sudoeste 0 1001.3 0.8 94
2018-01-01 01:00:00 6.4 5 Sudoeste 12 Oeste 0 1001.4 2.1 92
2018-01-01 00:00:00 7.3 8 Sudoeste 14 Oeste 0 1001.4 3 91
2017-12-31 23:00:00 7.6 7 Sudoeste 11 Sudoeste 0 1000.5 3.4 90
2017-12-31 22:00:00 8.2 7 Sudoeste 12 Sudoeste 0 999.3 3.7 89
2017-12-31 21:00:00 9.3 4 Sudoeste 10 Sudoeste 0 998.4 4.3 86
2017-12-31 20:00:00 10.6 3 Sudoeste 22 Oeste 0 997.1 4 83
2017-12-31 19:00:00 11.9 9 Oeste 31 Oeste 0 995.6 3.2 80
2017-12-31 18:00:00 13.3 14 Oeste 40 Oeste 0 994.1 1.8 86
2017-12-31 17:00:00 13.8 21 Oeste 48 Sudoeste 0 993.1 0.2 79
2017-12-31 16:00:00 15.4 18 Sudoeste 39 Oeste 0 992.4 -1.4 63
2017-12-31 15:00:00 15.7 17 Sudoeste 42 Sudoeste 0 992.3 -2.1 61
2017-12-31 14:00:00 14.4 15 Sudoeste 33 Sudoeste 0 992.9 -1.6 68
2017-12-31 13:00:00 12.7 3 Noroeste 6 Noroeste 0 993.8 -0.1 81
2017-12-31 12:00:00 11.3 2 Nordeste 7 Nordeste 0 994.4 0.6 86
2017-12-31 11:00:00 9.3 5 Noroeste 12 Noroeste 0 994.5 0.6 94
2017-12-31 10:00:00 8.6 5 Sudeste 9 Sudeste 0 993.9 0.5 97
2017-12-31 09:00:00 7.7 4 Sur 10 Sur 0 993.8 0.8 97
2017-12-31 08:00:00 7.4 3 Sur 8 Oeste 0 993.9 1 96
2017-12-31 07:00:00 6.8 4 Noroeste 8 Noroeste 0 993.4 -0.5 94
2017-12-31 06:00:00 8.3 3 Norte 10 Nordeste 0 993 -1.5 93
2017-12-31 05:00:00 8.7 4 Este 8 Este 0 992.9 -1.9 94
2017-12-31 04:00:00 8.6 3 Nordeste 8 Noroeste 0 993.9 -1.1 93
2017-12-31 03:00:00 8.3 4 Sudeste 9 Sur 0 994.5 -0.6 92
2017-12-31 02:00:00 8.1 4 Sur 10 Sudeste 0 994.8 -0.3 92
2017-12-31 01:00:00 8.3 4 Sur 7 Sudeste 0 995 0 91